sensor_id;sensor_type;location;lat;lon;timestamp;P1;durP1;ratioP1;P2;durP2;ratioP2
11100;SDS011;5604;50.722;7.078;2023-03-01T00:00:01;12.97;;;9.60;;
11100;SDS011;5604;50.722;7.078;2023-03-01T00:02:38;13.00;;;9.67;;
11100;SDS011;5604;50.722;7.078;2023-03-01T00:05:06;11.70;;;9.03;;
11100;SDS011;5604;50.722;7.078;2023-03-01T00:07:35;9.97;;;8.80;;
11100;SDS011;5604;50.722;7.078;2023-03-01T00:10:03;13.50;;;10.27;;
11100;SDS011;5604;50.722;7.078;2023-03-01T00:12:31;12.37;;;9.63;;
11100;SDS011;5604;50.722;7.078;2023-03-01T00:14:59;13.20;;;10.33;;
11100;SDS011;5604;50.722;7.078;2023-03-01T00:17:27;11.77;;;9.40;;
11100;SDS011;5604;50.722;7.078;2023-03-01T00:19:57;10.57;;;9.50;;
11100;SDS011;5604;50.722;7.078;2023-03-01T00:22:26;15.57;;;9.90;;
11100;SDS011;5604;50.722;7.078;2023-03-01T00:24:54;11.50;;;9.47;;
11100;SDS011;5604;50.722;7.078;2023-03-01T00:27:22;12.90;;;9.57;;
11100;SDS011;5604;50.722;7.078;2023-03-01T00:29:50;12.83;;;10.00;;
11100;SDS011;5604;50.722;7.078;2023-03-01T00:32:19;12.60;;;8.73;;
11100;SDS011;5604;50.722;7.078;2023-03-01T00:34:47;12.63;;;9.30;;
11100;SDS011;5604;50.722;7.078;2023-03-01T00:37:23;10.90;;;9.00;;
11100;SDS011;5604;50.722;7.078;2023-03-01T00:39:51;12.07;;;9.43;;
11100;SDS011;5604;50.722;7.078;2023-03-01T00:42:20;11.47;;;8.47;;
11100;SDS011;5604;50.722;7.078;2023-03-01T00:44:48;11.40;;;9.23;;
11100;SDS011;5604;50.722;7.078;2023-03-01T00:47:16;14.27;;;9.17;;
11100;SDS011;5604;50.722;7.078;2023-03-01T00:49:45;12.00;;;9.33;;
11100;SDS011;5604;50.722;7.078;2023-03-01T00:52:15;12.27;;;9.70;;
11100;SDS011;5604;50.722;7.078;2023-03-01T00:54:44;11.70;;;9.80;;
11100;SDS011;5604;50.722;7.078;2023-03-01T00:57:12;12.23;;;10.17;;
11100;SDS011;5604;50.722;7.078;2023-03-01T00:59:41;14.37;;;10.00;;
11100;SDS011;5604;50.722;7.078;2023-03-01T01:02:08;12.50;;;9.77;;
11100;SDS011;5604;50.722;7.078;2023-03-01T01:04:37;11.13;;;9.83;;
11100;SDS011;5604;50.722;7.078;2023-03-01T01:07:05;12.40;;;9.90;;
11100;SDS011;5604;50.722;7.078;2023-03-01T01:09:33;13.10;;;10.73;;
11100;SDS011;5604;50.722;7.078;2023-03-01T01:12:02;14.10;;;10.27;;
11100;SDS011;5604;50.722;7.078;2023-03-01T01:14:31;22.50;;;12.20;;
11100;SDS011;5604;50.722;7.078;2023-03-01T01:16:59;12.50;;;10.93;;
11100;SDS011;5604;50.722;7.078;2023-03-01T01:19:27;14.30;;;10.93;;
11100;SDS011;5604;50.722;7.078;2023-03-01T01:21:55;13.17;;;11.13;;
11100;SDS011;5604;50.722;7.078;2023-03-01T01:24:25;13.90;;;11.13;;
11100;SDS011;5604;50.722;7.078;2023-03-01T01:26:53;14.47;;;10.33;;
11100;SDS011;5604;50.722;7.078;2023-03-01T01:29:23;14.50;;;10.70;;
11100;SDS011;5604;50.722;7.078;2023-03-01T01:31:51;14.17;;;11.67;;
11100;SDS011;5604;50.722;7.078;2023-03-01T01:34:20;14.27;;;11.17;;
11100;SDS011;5604;50.722;7.078;2023-03-01T01:36:49;15.73;;;11.40;;
11100;SDS011;5604;50.722;7.078;2023-03-01T01:39:17;15.73;;;11.00;;
11100;SDS011;5604;50.722;7.078;2023-03-01T01:41:45;12.13;;;10.40;;
11100;SDS011;5604;50.722;7.078;2023-03-01T01:44:15;14.53;;;10.23;;
11100;SDS011;5604;50.722;7.078;2023-03-01T01:46:47;11.93;;;10.73;;
11100;SDS011;5604;50.722;7.078;2023-03-01T01:49:25;13.77;;;10.50;;
11100;SDS011;5604;50.722;7.078;2023-03-01T01:51:57;15.70;;;11.33;;
11100;SDS011;5604;50.722;7.078;2023-03-01T01:54:29;14.40;;;10.67;;
11100;SDS011;5604;50.722;7.078;2023-03-01T01:57:02;13.80;;;10.77;;
11100;SDS011;5604;50.722;7.078;2023-03-01T01:59:31;12.80;;;10.73;;
11100;SDS011;5604;50.722;7.078;2023-03-01T02:02:02;13.27;;;10.67;;
11100;SDS011;5604;50.722;7.078;2023-03-01T02:04:31;11.80;;;10.30;;
11100;SDS011;5604;50.722;7.078;2023-03-01T02:07:01;14.67;;;11.57;;
11100;SDS011;5604;50.722;7.078;2023-03-01T02:09:31;14.83;;;11.30;;
11100;SDS011;5604;50.722;7.078;2023-03-01T02:12:00;15.23;;;11.57;;
11100;SDS011;5604;50.722;7.078;2023-03-01T02:14:29;14.43;;;11.20;;
11100;SDS011;5604;50.722;7.078;2023-03-01T02:16:57;13.53;;;10.47;;
11100;SDS011;5604;50.722;7.078;2023-03-01T02:19:29;12.87;;;10.63;;
11100;SDS011;5604;50.722;7.078;2023-03-01T02:22:05;14.87;;;11.33;;
11100;SDS011;5604;50.722;7.078;2023-03-01T02:24:39;12.30;;;10.30;;
11100;SDS011;5604;50.722;7.078;2023-03-01T02:27:13;14.67;;;11.47;;
11100;SDS011;5604;50.722;7.078;2023-03-01T02:29:44;14.90;;;11.17;;
11100;SDS011;5604;50.722;7.078;2023-03-01T02:32:12;13.50;;;11.40;;
11100;SDS011;5604;50.722;7.078;2023-03-01T02:34:41;18.30;;;11.73;;
11100;SDS011;5604;50.722;7.078;2023-03-01T02:37:14;15.10;;;11.07;;
11100;SDS011;5604;50.722;7.078;2023-03-01T02:39:47;16.27;;;11.03;;
11100;SDS011;5604;50.722;7.078;2023-03-01T02:42:18;13.93;;;11.03;;
11100;SDS011;5604;50.722;7.078;2023-03-01T02:44:53;15.60;;;11.20;;
11100;SDS011;5604;50.722;7.078;2023-03-01T02:47:22;13.67;;;10.37;;
11100;SDS011;5604;50.722;7.078;2023-03-01T02:49:50;14.50;;;10.17;;
11100;SDS011;5604;50.722;7.078;2023-03-01T02:52:23;14.23;;;10.83;;
11100;SDS011;5604;50.722;7.078;2023-03-01T02:55:03;15.47;;;9.80;;
11100;SDS011;5604;50.722;7.078;2023-03-01T02:57:32;11.70;;;9.57;;
11100;SDS011;5604;50.722;7.078;2023-03-01T03:00:04;11.37;;;10.17;;
11100;SDS011;5604;50.722;7.078;2023-03-01T03:02:36;17.53;;;10.47;;
11100;SDS011;5604;50.722;7.078;2023-03-01T03:05:09;11.70;;;10.23;;
11100;SDS011;5604;50.722;7.078;2023-03-01T03:07:40;11.80;;;9.87;;
11100;SDS011;5604;50.722;7.078;2023-03-01T03:10:10;13.10;;;11.07;;
11100;SDS011;5604;50.722;7.078;2023-03-01T03:12:40;13.83;;;10.23;;
11100;SDS011;5604;50.722;7.078;2023-03-01T03:15:10;14.07;;;10.37;;
11100;SDS011;5604;50.722;7.078;2023-03-01T03:17:40;16.03;;;10.40;;
11100;SDS011;5604;50.722;7.078;2023-03-01T03:20:12;15.20;;;11.13;;
11100;SDS011;5604;50.722;7.078;2023-03-01T03:22:45;14.00;;;9.87;;
11100;SDS011;5604;50.722;7.078;2023-03-01T03:25:14;12.90;;;10.27;;
11100;SDS011;5604;50.722;7.078;2023-03-01T03:27:43;12.60;;;10.13;;
11100;SDS011;5604;50.722;7.078;2023-03-01T03:30:15;13.03;;;9.70;;
11100;SDS011;5604;50.722;7.078;2023-03-01T03:32:45;13.10;;;9.67;;
11100;SDS011;5604;50.722;7.078;2023-03-01T03:35:18;11.87;;;9.70;;
11100;SDS011;5604;50.722;7.078;2023-03-01T03:37:47;12.70;;;9.77;;
11100;SDS011;5604;50.722;7.078;2023-03-01T03:40:33;12.17;;;10.47;;
11100;SDS011;5604;50.722;7.078;2023-03-01T03:43:02;13.40;;;10.47;;
11100;SDS011;5604;50.722;7.078;2023-03-01T03:45:32;11.77;;;9.90;;
11100;SDS011;5604;50.722;7.078;2023-03-01T03:48:02;14.23;;;10.97;;
11100;SDS011;5604;50.722;7.078;2023-03-01T03:50:31;11.70;;;9.37;;
11100;SDS011;5604;50.722;7.078;2023-03-01T03:53:00;13.87;;;10.57;;
11100;SDS011;5604;50.722;7.078;2023-03-01T03:55:29;13.07;;;10.57;;
11100;SDS011;5604;50.722;7.078;2023-03-01T03:57:57;14.80;;;10.87;;
11100;SDS011;5604;50.722;7.078;2023-03-01T04:00:28;15.93;;;10.80;;
11100;SDS011;5604;50.722;7.078;2023-03-01T04:02:58;14.93;;;10.23;;
11100;SDS011;5604;50.722;7.078;2023-03-01T04:05:27;12.97;;;9.63;;
11100;SDS011;5604;50.722;7.078;2023-03-01T04:07:55;14.67;;;10.70;;
11100;SDS011;5604;50.722;7.078;2023-03-01T04:10:34;13.43;;;10.90;;
11100;SDS011;5604;50.722;7.078;2023-03-01T04:13:04;14.70;;;11.13;;
11100;SDS011;5604;50.722;7.078;2023-03-01T04:15:32;13.70;;;10.63;;
11100;SDS011;5604;50.722;7.078;2023-03-01T04:18:02;14.30;;;12.07;;
11100;SDS011;5604;50.722;7.078;2023-03-01T04:20:32;16.00;;;11.47;;
11100;SDS011;5604;50.722;7.078;2023-03-01T04:23:03;14.10;;;11.23;;
11100;SDS011;5604;50.722;7.078;2023-03-01T04:25:37;13.00;;;11.17;;
11100;SDS011;5604;50.722;7.078;2023-03-01T04:28:07;14.67;;;11.17;;
11100;SDS011;5604;50.722;7.078;2023-03-01T04:30:35;16.30;;;11.70;;
11100;SDS011;5604;50.722;7.078;2023-03-01T04:33:05;14.00;;;10.93;;
11100;SDS011;5604;50.722;7.078;2023-03-01T04:35:35;17.10;;;11.50;;
11100;SDS011;5604;50.722;7.078;2023-03-01T04:38:05;14.83;;;10.97;;
11100;SDS011;5604;50.722;7.078;2023-03-01T04:40:33;15.43;;;11.67;;
11100;SDS011;5604;50.722;7.078;2023-03-01T04:43:01;16.07;;;11.57;;
11100;SDS011;5604;50.722;7.078;2023-03-01T04:45:31;15.77;;;11.57;;
11100;SDS011;5604;50.722;7.078;2023-03-01T04:48:01;17.70;;;12.27;;
11100;SDS011;5604;50.722;7.078;2023-03-01T04:50:30;13.63;;;11.87;;
11100;SDS011;5604;50.722;7.078;2023-03-01T04:52:58;14.37;;;10.73;;
11100;SDS011;5604;50.722;7.078;2023-03-01T04:55:26;14.50;;;11.60;;
11100;SDS011;5604;50.722;7.078;2023-03-01T04:57:55;13.77;;;11.13;;
11100;SDS011;5604;50.722;7.078;2023-03-01T05:00:23;14.00;;;10.97;;
11100;SDS011;5604;50.722;7.078;2023-03-01T05:02:52;13.57;;;10.80;;
11100;SDS011;5604;50.722;7.078;2023-03-01T05:05:22;14.00;;;10.87;;
11100;SDS011;5604;50.722;7.078;2023-03-01T05:07:54;15.40;;;11.37;;
11100;SDS011;5604;50.722;7.078;2023-03-01T05:10:23;16.50;;;12.13;;
11100;SDS011;5604;50.722;7.078;2023-03-01T05:12:52;15.37;;;11.80;;
11100;SDS011;5604;50.722;7.078;2023-03-01T05:15:20;15.07;;;11.27;;
11100;SDS011;5604;50.722;7.078;2023-03-01T05:17:52;14.23;;;11.43;;
11100;SDS011;5604;50.722;7.078;2023-03-01T05:20:20;13.97;;;10.77;;
11100;SDS011;5604;50.722;7.078;2023-03-01T05:22:51;14.43;;;11.23;;
11100;SDS011;5604;50.722;7.078;2023-03-01T05:25:21;15.13;;;11.67;;
11100;SDS011;5604;50.722;7.078;2023-03-01T05:27:49;16.00;;;11.80;;
11100;SDS011;5604;50.722;7.078;2023-03-01T05:30:17;15.33;;;11.63;;
11100;SDS011;5604;50.722;7.078;2023-03-01T05:32:46;11.50;;;10.30;;
11100;SDS011;5604;50.722;7.078;2023-03-01T05:35:16;14.37;;;10.17;;
11100;SDS011;5604;50.722;7.078;2023-03-01T05:37:46;13.63;;;11.03;;
11100;SDS011;5604;50.722;7.078;2023-03-01T05:40:16;19.57;;;12.37;;
11100;SDS011;5604;50.722;7.078;2023-03-01T05:42:47;14.60;;;11.60;;
11100;SDS011;5604;50.722;7.078;2023-03-01T05:45:16;17.70;;;11.03;;
11100;SDS011;5604;50.722;7.078;2023-03-01T05:47:45;16.13;;;11.67;;
11100;SDS011;5604;50.722;7.078;2023-03-01T05:50:15;15.33;;;11.53;;
11100;SDS011;5604;50.722;7.078;2023-03-01T05:52:46;13.93;;;11.77;;
11100;SDS011;5604;50.722;7.078;2023-03-01T05:55:16;14.97;;;11.77;;
11100;SDS011;5604;50.722;7.078;2023-03-01T05:57:44;16.37;;;11.70;;
11100;SDS011;5604;50.722;7.078;2023-03-01T06:00:14;15.10;;;11.23;;
11100;SDS011;5604;50.722;7.078;2023-03-01T06:02:43;17.80;;;12.33;;
11100;SDS011;5604;50.722;7.078;2023-03-01T06:05:12;13.43;;;11.43;;
11100;SDS011;5604;50.722;7.078;2023-03-01T06:07:40;12.23;;;10.63;;
11100;SDS011;5604;50.722;7.078;2023-03-01T06:10:09;12.80;;;10.70;;
11100;SDS011;5604;50.722;7.078;2023-03-01T06:12:39;16.87;;;11.63;;
11100;SDS011;5604;50.722;7.078;2023-03-01T06:15:09;15.27;;;11.80;;
11100;SDS011;5604;50.722;7.078;2023-03-01T06:17:40;15.60;;;11.70;;
11100;SDS011;5604;50.722;7.078;2023-03-01T06:20:11;16.47;;;11.93;;
11100;SDS011;5604;50.722;7.078;2023-03-01T06:22:41;14.87;;;12.17;;
11100;SDS011;5604;50.722;7.078;2023-03-01T06:25:10;18.97;;;11.97;;
11100;SDS011;5604;50.722;7.078;2023-03-01T06:27:40;15.53;;;11.53;;
11100;SDS011;5604;50.722;7.078;2023-03-01T06:30:09;15.17;;;11.03;;
11100;SDS011;5604;50.722;7.078;2023-03-01T06:32:39;15.10;;;11.90;;
11100;SDS011;5604;50.722;7.078;2023-03-01T06:35:09;14.80;;;11.10;;
11100;SDS011;5604;50.722;7.078;2023-03-01T06:37:38;16.70;;;12.53;;
11100;SDS011;5604;50.722;7.078;2023-03-01T06:40:07;16.03;;;11.83;;
11100;SDS011;5604;50.722;7.078;2023-03-01T06:42:39;15.70;;;12.13;;
11100;SDS011;5604;50.722;7.078;2023-03-01T06:45:09;12.20;;;10.90;;
11100;SDS011;5604;50.722;7.078;2023-03-01T06:47:37;14.70;;;11.73;;
11100;SDS011;5604;50.722;7.078;2023-03-01T06:50:08;15.07;;;10.93;;
11100;SDS011;5604;50.722;7.078;2023-03-01T06:52:36;16.40;;;11.43;;
11100;SDS011;5604;50.722;7.078;2023-03-01T06:55:05;14.23;;;11.50;;
11100;SDS011;5604;50.722;7.078;2023-03-01T06:57:34;17.10;;;12.47;;
11100;SDS011;5604;50.722;7.078;2023-03-01T07:00:02;15.60;;;12.60;;
11100;SDS011;5604;50.722;7.078;2023-03-01T07:02:31;17.60;;;12.43;;
11100;SDS011;5604;50.722;7.078;2023-03-01T07:05:01;15.10;;;11.97;;
11100;SDS011;5604;50.722;7.078;2023-03-01T07:07:29;19.23;;;12.87;;
11100;SDS011;5604;50.722;7.078;2023-03-01T07:09:57;19.37;;;13.57;;
11100;SDS011;5604;50.722;7.078;2023-03-01T07:12:25;15.80;;;12.83;;
11100;SDS011;5604;50.722;7.078;2023-03-01T07:14:53;14.87;;;11.77;;
11100;SDS011;5604;50.722;7.078;2023-03-01T07:17:22;15.27;;;12.17;;
11100;SDS011;5604;50.722;7.078;2023-03-01T07:19:51;19.33;;;13.47;;
11100;SDS011;5604;50.722;7.078;2023-03-01T07:22:20;17.50;;;13.27;;
11100;SDS011;5604;50.722;7.078;2023-03-01T07:24:49;19.10;;;13.47;;
11100;SDS011;5604;50.722;7.078;2023-03-01T07:27:17;18.80;;;13.30;;
11100;SDS011;5604;50.722;7.078;2023-03-01T07:29:45;16.80;;;13.40;;
11100;SDS011;5604;50.722;7.078;2023-03-01T07:32:13;17.73;;;13.47;;
11100;SDS011;5604;50.722;7.078;2023-03-01T07:34:41;16.93;;;13.87;;
11100;SDS011;5604;50.722;7.078;2023-03-01T07:37:10;20.10;;;13.73;;
11100;SDS011;5604;50.722;7.078;2023-03-01T07:39:39;17.23;;;13.37;;
11100;SDS011;5604;50.722;7.078;2023-03-01T07:42:08;18.07;;;13.87;;
11100;SDS011;5604;50.722;7.078;2023-03-01T07:44:36;17.07;;;13.40;;
11100;SDS011;5604;50.722;7.078;2023-03-01T07:47:06;17.03;;;12.97;;
11100;SDS011;5604;50.722;7.078;2023-03-01T07:49:34;16.30;;;12.80;;
11100;SDS011;5604;50.722;7.078;2023-03-01T07:52:02;15.57;;;13.27;;
11100;SDS011;5604;50.722;7.078;2023-03-01T07:54:31;17.53;;;13.17;;
11100;SDS011;5604;50.722;7.078;2023-03-01T07:57:01;17.37;;;14.07;;
11100;SDS011;5604;50.722;7.078;2023-03-01T07:59:30;17.00;;;12.10;;
11100;SDS011;5604;50.722;7.078;2023-03-01T08:01:58;18.37;;;12.13;;
11100;SDS011;5604;50.722;7.078;2023-03-01T08:04:28;17.07;;;12.80;;
11100;SDS011;5604;50.722;7.078;2023-03-01T08:06:56;15.53;;;12.33;;
11100;SDS011;5604;50.722;7.078;2023-03-01T08:09:24;16.23;;;12.93;;
11100;SDS011;5604;50.722;7.078;2023-03-01T08:11:53;15.10;;;12.30;;
11100;SDS011;5604;50.722;7.078;2023-03-01T08:14:23;19.10;;;13.07;;
11100;SDS011;5604;50.722;7.078;2023-03-01T08:16:51;17.00;;;13.73;;
11100;SDS011;5604;50.722;7.078;2023-03-01T08:19:21;16.13;;;13.43;;
11100;SDS011;5604;50.722;7.078;2023-03-01T08:21:49;17.87;;;12.57;;
11100;SDS011;5604;50.722;7.078;2023-03-01T08:24:18;18.40;;;13.93;;
11100;SDS011;5604;50.722;7.078;2023-03-01T08:26:46;16.97;;;12.90;;
11100;SDS011;5604;50.722;7.078;2023-03-01T08:29:14;18.27;;;14.07;;
11100;SDS011;5604;50.722;7.078;2023-03-01T08:31:44;19.27;;;14.13;;
11100;SDS011;5604;50.722;7.078;2023-03-01T08:34:13;16.63;;;14.10;;
11100;SDS011;5604;50.722;7.078;2023-03-01T08:36:42;18.77;;;14.30;;
11100;SDS011;5604;50.722;7.078;2023-03-01T08:39:12;17.43;;;14.10;;
11100;SDS011;5604;50.722;7.078;2023-03-01T08:41:42;19.03;;;15.37;;
11100;SDS011;5604;50.722;7.078;2023-03-01T08:44:14;21.27;;;14.37;;
11100;SDS011;5604;50.722;7.078;2023-03-01T08:46:45;18.63;;;13.83;;
11100;SDS011;5604;50.722;7.078;2023-03-01T08:49:13;20.30;;;13.73;;
11100;SDS011;5604;50.722;7.078;2023-03-01T08:51:42;19.60;;;13.20;;
11100;SDS011;5604;50.722;7.078;2023-03-01T08:54:12;17.40;;;13.70;;
11100;SDS011;5604;50.722;7.078;2023-03-01T08:56:41;16.70;;;13.93;;
11100;SDS011;5604;50.722;7.078;2023-03-01T08:59:09;21.20;;;14.57;;
11100;SDS011;5604;50.722;7.078;2023-03-01T09:01:38;18.13;;;14.70;;
11100;SDS011;5604;50.722;7.078;2023-03-01T09:04:11;15.47;;;13.40;;
11100;SDS011;5604;50.722;7.078;2023-03-01T09:06:39;16.83;;;13.87;;
11100;SDS011;5604;50.722;7.078;2023-03-01T09:09:10;17.10;;;13.47;;
11100;SDS011;5604;50.722;7.078;2023-03-01T09:11:41;17.00;;;13.03;;
11100;SDS011;5604;50.722;7.078;2023-03-01T09:14:09;18.47;;;14.70;;
11100;SDS011;5604;50.722;7.078;2023-03-01T09:16:38;19.63;;;14.43;;
11100;SDS011;5604;50.722;7.078;2023-03-01T09:19:06;17.00;;;14.33;;
11100;SDS011;5604;50.722;7.078;2023-03-01T09:21:36;16.33;;;13.77;;
11100;SDS011;5604;50.722;7.078;2023-03-01T09:24:07;18.10;;;13.97;;
11100;SDS011;5604;50.722;7.078;2023-03-01T09:26:40;16.63;;;13.37;;
11100;SDS011;5604;50.722;7.078;2023-03-01T09:29:08;18.30;;;13.07;;
11100;SDS011;5604;50.722;7.078;2023-03-01T09:31:40;18.03;;;13.27;;
11100;SDS011;5604;50.722;7.078;2023-03-01T09:34:12;16.77;;;13.60;;
11100;SDS011;5604;50.722;7.078;2023-03-01T09:36:44;17.23;;;14.27;;
11100;SDS011;5604;50.722;7.078;2023-03-01T09:39:13;17.67;;;12.90;;
11100;SDS011;5604;50.722;7.078;2023-03-01T09:41:45;17.20;;;13.20;;
11100;SDS011;5604;50.722;7.078;2023-03-01T09:44:18;15.70;;;13.10;;
11100;SDS011;5604;50.722;7.078;2023-03-01T09:46:51;17.50;;;12.83;;
11100;SDS011;5604;50.722;7.078;2023-03-01T09:49:20;16.57;;;13.57;;
11100;SDS011;5604;50.722;7.078;2023-03-01T09:51:56;15.87;;;13.37;;
11100;SDS011;5604;50.722;7.078;2023-03-01T09:54:27;16.87;;;13.13;;
11100;SDS011;5604;50.722;7.078;2023-03-01T09:57:06;15.60;;;13.23;;
11100;SDS011;5604;50.722;7.078;2023-03-01T10:02:35;16.27;;;12.63;;
11100;SDS011;5604;50.722;7.078;2023-03-01T10:05:12;15.27;;;12.17;;
11100;SDS011;5604;50.722;7.078;2023-03-01T10:07:48;15.83;;;12.17;;
11100;SDS011;5604;50.722;7.078;2023-03-01T10:10:25;14.93;;;11.37;;
11100;SDS011;5604;50.722;7.078;2023-03-01T10:12:56;14.40;;;12.00;;
11100;SDS011;5604;50.722;7.078;2023-03-01T10:15:27;14.83;;;11.20;;
11100;SDS011;5604;50.722;7.078;2023-03-01T10:17:59;15.87;;;11.40;;
11100;SDS011;5604;50.722;7.078;2023-03-01T10:20:33;12.07;;;10.87;;
11100;SDS011;5604;50.722;7.078;2023-03-01T10:23:12;13.03;;;11.27;;
11100;SDS011;5604;50.722;7.078;2023-03-01T10:25:44;15.13;;;12.00;;
11100;SDS011;5604;50.722;7.078;2023-03-01T10:28:16;13.90;;;10.93;;
11100;SDS011;5604;50.722;7.078;2023-03-01T10:30:45;13.30;;;11.23;;
11100;SDS011;5604;50.722;7.078;2023-03-01T10:33:15;15.87;;;12.30;;
11100;SDS011;5604;50.722;7.078;2023-03-01T10:35:45;18.70;;;11.77;;
11100;SDS011;5604;50.722;7.078;2023-03-01T10:38:16;17.20;;;12.10;;
11100;SDS011;5604;50.722;7.078;2023-03-01T10:40:50;12.13;;;10.83;;
11100;SDS011;5604;50.722;7.078;2023-03-01T10:43:20;13.23;;;11.73;;
11100;SDS011;5604;50.722;7.078;2023-03-01T10:45:48;16.03;;;12.27;;
11100;SDS011;5604;50.722;7.078;2023-03-01T10:48:17;15.43;;;11.87;;
11100;SDS011;5604;50.722;7.078;2023-03-01T10:50:48;14.07;;;11.43;;
11100;SDS011;5604;50.722;7.078;2023-03-01T10:53:25;13.07;;;10.80;;
11100;SDS011;5604;50.722;7.078;2023-03-01T10:56:04;13.07;;;10.53;;
11100;SDS011;5604;50.722;7.078;2023-03-01T10:58:35;14.80;;;10.20;;
11100;SDS011;5604;50.722;7.078;2023-03-01T11:01:24;12.53;;;10.17;;
11100;SDS011;5604;50.722;7.078;2023-03-01T11:04:03;14.10;;;11.47;;
11100;SDS011;5604;50.722;7.078;2023-03-01T11:09:30;13.33;;;10.93;;
11100;SDS011;5604;50.722;7.078;2023-03-01T11:12:04;13.93;;;10.90;;
11100;SDS011;5604;50.722;7.078;2023-03-01T11:14:37;14.07;;;11.60;;
11100;SDS011;5604;50.722;7.078;2023-03-01T11:17:11;12.13;;;10.80;;
11100;SDS011;5604;50.722;7.078;2023-03-01T11:19:41;15.10;;;10.67;;
11100;SDS011;5604;50.722;7.078;2023-03-01T11:22:26;14.07;;;9.83;;
11100;SDS011;5604;50.722;7.078;2023-03-01T11:24:56;13.77;;;10.73;;
11100;SDS011;5604;50.722;7.078;2023-03-01T11:27:36;13.70;;;10.60;;
11100;SDS011;5604;50.722;7.078;2023-03-01T11:30:12;12.23;;;10.37;;
11100;SDS011;5604;50.722;7.078;2023-03-01T11:32:45;15.10;;;11.10;;
11100;SDS011;5604;50.722;7.078;2023-03-01T11:35:16;12.83;;;10.37;;
11100;SDS011;5604;50.722;7.078;2023-03-01T11:37:51;11.27;;;9.23;;
11100;SDS011;5604;50.722;7.078;2023-03-01T11:40:29;12.87;;;9.33;;
11100;SDS011;5604;50.722;7.078;2023-03-01T11:43:04;12.97;;;9.97;;
11100;SDS011;5604;50.722;7.078;2023-03-01T11:45:54;13.83;;;10.10;;
11100;SDS011;5604;50.722;7.078;2023-03-01T11:48:48;32.37;;;11.97;;
11100;SDS011;5604;50.722;7.078;2023-03-01T11:51:23;12.60;;;9.43;;
11100;SDS011;5604;50.722;7.078;2023-03-01T11:53:57;14.90;;;9.40;;
11100;SDS011;5604;50.722;7.078;2023-03-01T11:56:38;12.50;;;9.23;;
11100;SDS011;5604;50.722;7.078;2023-03-01T11:59:32;12.87;;;8.07;;
11100;SDS011;5604;50.722;7.078;2023-03-01T12:05:24;12.80;;;9.13;;
11100;SDS011;5604;50.722;7.078;2023-03-01T12:08:10;12.40;;;9.27;;
11100;SDS011;5604;50.722;7.078;2023-03-01T12:10:43;11.73;;;9.67;;
11100;SDS011;5604;50.722;7.078;2023-03-01T12:16:12;14.70;;;8.30;;
11100;SDS011;5604;50.722;7.078;2023-03-01T12:21:55;9.40;;;8.13;;
11100;SDS011;5604;50.722;7.078;2023-03-01T12:27:24;9.67;;;7.47;;
11100;SDS011;5604;50.722;7.078;2023-03-01T12:30:03;9.37;;;7.77;;
11100;SDS011;5604;50.722;7.078;2023-03-01T12:32:46;9.13;;;8.00;;
11100;SDS011;5604;50.722;7.078;2023-03-01T12:35:32;9.47;;;7.90;;
11100;SDS011;5604;50.722;7.078;2023-03-01T12:38:11;11.30;;;8.20;;
11100;SDS011;5604;50.722;7.078;2023-03-01T12:40:57;9.77;;;8.10;;
11100;SDS011;5604;50.722;7.078;2023-03-01T12:43:36;9.93;;;7.87;;
11100;SDS011;5604;50.722;7.078;2023-03-01T12:46:13;8.77;;;7.87;;
11100;SDS011;5604;50.722;7.078;2023-03-01T12:48:48;11.87;;;8.03;;
11100;SDS011;5604;50.722;7.078;2023-03-01T12:51:23;11.07;;;8.87;;
11100;SDS011;5604;50.722;7.078;2023-03-01T12:53:53;10.67;;;7.43;;
11100;SDS011;5604;50.722;7.078;2023-03-01T12:56:24;9.53;;;7.67;;
11100;SDS011;5604;50.722;7.078;2023-03-01T12:58:59;12.70;;;8.30;;
11100;SDS011;5604;50.722;7.078;2023-03-01T13:01:36;11.07;;;7.90;;
11100;SDS011;5604;50.722;7.078;2023-03-01T13:04:17;10.83;;;7.80;;
11100;SDS011;5604;50.722;7.078;2023-03-01T13:06:55;10.83;;;8.10;;
11100;SDS011;5604;50.722;7.078;2023-03-01T13:09:29;8.40;;;7.37;;
11100;SDS011;5604;50.722;7.078;2023-03-01T13:12:03;8.10;;;7.27;;
11100;SDS011;5604;50.722;7.078;2023-03-01T13:14:46;10.67;;;7.13;;
11100;SDS011;5604;50.722;7.078;2023-03-01T13:17:32;10.87;;;7.10;;
11100;SDS011;5604;50.722;7.078;2023-03-01T13:20:01;8.90;;;7.20;;
11100;SDS011;5604;50.722;7.078;2023-03-01T13:22:32;11.63;;;8.50;;
11100;SDS011;5604;50.722;7.078;2023-03-01T13:25:14;12.73;;;8.50;;
11100;SDS011;5604;50.722;7.078;2023-03-01T13:27:45;8.67;;;7.77;;
11100;SDS011;5604;50.722;7.078;2023-03-01T13:44:58;10.03;;;7.00;;
11100;SDS011;5604;50.722;7.078;2023-03-01T13:47:28;10.40;;;7.27;;
11100;SDS011;5604;50.722;7.078;2023-03-01T13:49:58;8.17;;;7.03;;
11100;SDS011;5604;50.722;7.078;2023-03-01T13:52:34;10.03;;;6.97;;
11100;SDS011;5604;50.722;7.078;2023-03-01T13:55:13;9.73;;;6.50;;
11100;SDS011;5604;50.722;7.078;2023-03-01T13:57:46;7.30;;;6.60;;
11100;SDS011;5604;50.722;7.078;2023-03-01T14:00:27;12.07;;;7.33;;
11100;SDS011;5604;50.722;7.078;2023-03-01T14:03:02;8.27;;;6.73;;
11100;SDS011;5604;50.722;7.078;2023-03-01T14:05:33;11.53;;;6.90;;
11100;SDS011;5604;50.722;7.078;2023-03-01T14:08:02;7.73;;;6.40;;
11100;SDS011;5604;50.722;7.078;2023-03-01T14:10:32;7.47;;;6.53;;
11100;SDS011;5604;50.722;7.078;2023-03-01T14:13:07;7.87;;;5.70;;
11100;SDS011;5604;50.722;7.078;2023-03-01T14:15:46;8.60;;;6.50;;
11100;SDS011;5604;50.722;7.078;2023-03-01T14:18:18;9.27;;;6.60;;
11100;SDS011;5604;50.722;7.078;2023-03-01T14:20:51;8.83;;;7.23;;
11100;SDS011;5604;50.722;7.078;2023-03-01T14:23:20;9.20;;;6.77;;
11100;SDS011;5604;50.722;7.078;2023-03-01T14:25:49;11.37;;;7.00;;
11100;SDS011;5604;50.722;7.078;2023-03-01T14:28:19;7.40;;;6.00;;
11100;SDS011;5604;50.722;7.078;2023-03-01T14:30:50;7.87;;;6.27;;
11100;SDS011;5604;50.722;7.078;2023-03-01T14:33:20;8.97;;;6.53;;
11100;SDS011;5604;50.722;7.078;2023-03-01T14:35:53;11.30;;;6.93;;
11100;SDS011;5604;50.722;7.078;2023-03-01T14:38:23;7.87;;;6.60;;
11100;SDS011;5604;50.722;7.078;2023-03-01T14:40:59;9.23;;;6.20;;
11100;SDS011;5604;50.722;7.078;2023-03-01T14:43:32;8.07;;;6.33;;
11100;SDS011;5604;50.722;7.078;2023-03-01T14:46:00;7.57;;;5.97;;
11100;SDS011;5604;50.722;7.078;2023-03-01T14:48:32;9.17;;;6.43;;
11100;SDS011;5604;50.722;7.078;2023-03-01T14:51:02;7.77;;;6.60;;
11100;SDS011;5604;50.722;7.078;2023-03-01T14:53:32;8.60;;;5.77;;
11100;SDS011;5604;50.722;7.078;2023-03-01T14:56:16;7.23;;;5.43;;
11100;SDS011;5604;50.722;7.078;2023-03-01T14:58:46;8.70;;;5.53;;
11100;SDS011;5604;50.722;7.078;2023-03-01T15:01:19;9.57;;;5.93;;
11100;SDS011;5604;50.722;7.078;2023-03-01T15:03:48;8.93;;;5.80;;
11100;SDS011;5604;50.722;7.078;2023-03-01T15:06:19;6.93;;;5.37;;
11100;SDS011;5604;50.722;7.078;2023-03-01T15:08:50;5.80;;;5.20;;
11100;SDS011;5604;50.722;7.078;2023-03-01T15:11:21;6.20;;;5.13;;
11100;SDS011;5604;50.722;7.078;2023-03-01T15:13:52;7.20;;;5.30;;
11100;SDS011;5604;50.722;7.078;2023-03-01T15:16:22;5.83;;;4.83;;
11100;SDS011;5604;50.722;7.078;2023-03-01T15:18:52;8.80;;;7.13;;
11100;SDS011;5604;50.722;7.078;2023-03-01T15:21:24;8.87;;;6.83;;
11100;SDS011;5604;50.722;7.078;2023-03-01T15:23:56;9.10;;;7.30;;
11100;SDS011;5604;50.722;7.078;2023-03-01T15:26:29;8.10;;;6.83;;
11100;SDS011;5604;50.722;7.078;2023-03-01T15:28:59;9.07;;;7.10;;
11100;SDS011;5604;50.722;7.078;2023-03-01T15:31:29;8.87;;;6.93;;
11100;SDS011;5604;50.722;7.078;2023-03-01T15:34:08;11.57;;;8.00;;
11100;SDS011;5604;50.722;7.078;2023-03-01T15:36:41;12.27;;;7.83;;